Aérodrome :
LOGIN :

S'inscrire | Disclaimer

   EN    FR    IT 

 










Légende :    VFR   VFR Marginal   IFR   IFR Intensif   IFR Très Intensif
Visi : 
Plafond : 
>= 8 km
>= 3000ft
5 à 8 km
1000 à 3000 ft
1500m à 5 km
500 à 1000 ft
800 à 1500m
200 à 500 ft
< 800m
< 200 ft
Symboles :   Orages  Brouillard  Fortes neiges  Fortes précipitations  Vent > 20 kt
SIGMETs :   Divers  Orages  Givrage  Turbulence  Onde Orograph.  Cendres Volcan.







- Altitude de l'aérodrome : 18 ft
- Code IATA : AJA
- Voir les cartes d'approche


LFKJ - Ajaccio

DERNIER METAR :
  • 200700Z AUTO 05003KT 020V080 CAVOK 21/18 Q1017 BECMG 24010KT

METARs EXPIRÉS :
  • 200630Z AUTO 04005KT 010V070 CAVOK 20/17 Q1017 BECMG 24010KT
  • 200600Z AUTO 03005KT CAVOK 19/17 Q1017 BECMG 24010KT
  • 200530Z AUTO 04004KT CAVOK 19/17 Q1017 BECMG 24010KT
  • 200500Z AUTO 04005KT 9999 FEW020 19/17 Q1017 NOSIG
  • 200430Z AUTO 04005KT 9999 BKN020 19/17 Q1017 NOSIG
  • 200400Z AUTO 03006KT 010V070 CAVOK 20/17 Q1017 NOSIG

TAF TAF LFKJ
Valide du 20 à 03h jusqu'au 21 à 03h UTC


200200Z 2003/2103 05004KT CAVOK
TEMPO 2003/2006 BKN023
BECMG 2007/2010 24010KT SCT030
BECMG 2017/2020 04004KT CAVOK
ATIS : +33 4 95 23 59 85
Pas de NOTAMs connus pour ce terrain.



MET'MAP, la Météo Aéronautique d'un coup d'oeil ! - Copyright ORBIFLY Décembre 2007 - Disclaimer

ORBIFLY MET'MAP TEAM :

Programmation & Développement : Alexandra Zaïnal
Conception & Développement : Baudouin d'Aumeries
Co-Programmation & Développement : Marc-Olivier Méhu
Soutien technique & logistique : Manuel Goepfert

Contact : metmap@orbifly.com




SOURCES & CREDITS :

   NOAA